Time;durP1;ratioP1;P1;durP2;ratioP2;P2;SDS_P1;SDS_P2;PMS_P1;PMS_P2;Temp;Humidity;BMP_temperature;BMP_pressure;BME280_temperature;BME280_humidity;BME280_pressure;Samples;Min_cycle;Max_cycle;Signal;HPM_P1;HPM_P2
2023/02/19 00:00:00;;;;;;;;;1.00;1.00;;;;;22.09;40.34;101940.78;5055333;28;45590;-70
2023/02/19 00:02:25;;;;;;;;;0.00;0.00;;;;;22.16;40.33;101942.16;5061381;27;45485;-70
2023/02/19 00:04:51;;;;;;;;;2.00;2.00;;;;;22.13;40.17;101942.31;5070873;28;65404;-70
2023/02/19 00:07:16;;;;;;;;;1.25;1.00;;;;;22.13;40.21;101952.97;5068810;27;62209;-70
2023/02/19 00:09:41;;;;;;;;;1.00;1.00;;;;;22.15;40.52;101951.09;5072376;28;64690;-70
2023/02/19 00:12:07;;;;;;;;;0.00;0.00;;;;;22.13;40.56;101951.19;5056604;28;46752;-70
2023/02/19 00:14:32;;;;;;;;;0.75;0.75;;;;;22.14;40.66;101949.38;5072925;27;70081;-71
2023/02/19 00:16:57;;;;;;;;;2.00;1.00;;;;;22.11;40.26;101942.41;5070736;27;69745;-71
2023/02/19 00:19:23;;;;;;;;;1.25;1.00;;;;;22.11;40.18;101952.22;5068612;27;61790;-70
2023/02/19 00:21:52;;;;;;;;;2.75;1.00;;;;;22.12;40.06;101941.47;5066856;28;45794;-71
2023/02/19 00:24:20;;;;;;;;;1.25;1.00;;;;;22.10;40.67;101934.53;5064193;27;46025;-70
2023/02/19 00:26:46;;;;;;;;;1.25;1.25;;;;;22.09;40.73;101938.97;5070549;28;46386;-70
2023/02/19 00:29:14;;;;;;;;;2.00;0.25;;;;;22.11;40.61;101944.22;5063969;28;45402;-70
2023/02/19 00:31:39;;;;;;;;;2.50;1.75;;;;;22.08;40.51;101929.28;5053586;28;45430;-70
2023/02/19 00:34:05;;;;;;;;;1.00;1.00;;;;;22.09;40.24;101941.63;5068344;28;56103;-70
2023/02/19 00:36:34;;;;;;;;;1.00;1.00;;;;;22.09;40.38;101940.78;5059843;28;47821;-70
2023/02/19 00:39:00;;;;;;;;;0.25;0.25;;;;;22.09;40.04;101938.13;5073969;27;45895;-70
2023/02/19 00:41:26;;;;;;;;;1.75;0.00;;;;;22.06;40.41;101938.28;5063883;27;45349;-70
2023/02/19 00:43:55;;;;;;;;;1.00;1.00;;;;;22.08;40.13;101923.06;5061149;27;45483;-70
2023/02/19 00:46:31;;;;;;;;;0.00;0.00;;;;;22.05;40.42;101913.44;5073353;27;46526;-70
2023/02/19 00:48:57;;;;;;;;;1.00;1.00;;;;;22.08;40.10;101915.94;5076566;28;45525;-70
2023/02/19 00:51:25;;;;;;;;;1.25;1.25;;;;;22.06;40.19;101909.84;5068017;27;45497;-70
2023/02/19 00:53:51;;;;;;;;;2.50;1.00;;;;;22.08;39.93;101921.28;5045701;28;45561;-70
2023/02/19 00:56:16;;;;;;;;;1.00;1.00;;;;;22.03;40.54;101923.34;5055615;27;46986;-70
2023/02/19 00:58:42;;;;;;;;;1.00;0.75;;;;;22.07;40.17;101922.22;5108160;27;45275;-70
2023/02/19 01:01:08;;;;;;;;;2.00;1.00;;;;;22.07;40.72;101910.69;5064731;27;45500;-70
2023/02/19 01:03:34;;;;;;;;;1.00;1.00;;;;;22.07;40.38;101902.69;5074947;28;45413;-70
2023/02/19 01:06:00;;;;;;;;;1.00;1.00;;;;;22.06;40.33;101903.63;5055253;28;47431;-70
2023/02/19 01:08:26;;;;;;;;;2.00;1.00;;;;;22.03;40.50;101902.00;5066645;28;45474;-70
2023/02/19 01:10:51;;;;;;;;;1.00;1.00;;;;;22.01;40.48;101906.56;5055567;28;45386;-70
2023/02/19 01:13:17;;;;;;;;;2.00;1.00;;;;;22.06;40.63;101928.50;5067632;27;49557;-70
2023/02/19 01:15:42;;;;;;;;;3.00;1.25;;;;;22.04;40.61;101917.03;5050209;28;46936;-70
2023/02/19 01:18:08;;;;;;;;;3.00;0.00;;;;;22.04;40.49;101925.03;5069941;28;45367;-70
2023/02/19 01:20:33;;;;;;;;;1.00;1.00;;;;;22.04;40.67;101918.84;5064835;27;45457;-70
2023/02/19 01:22:59;;;;;;;;;1.00;1.00;;;;;22.00;40.69;101919.03;5067583;27;46658;-70
2023/02/19 01:25:24;;;;;;;;;1.00;1.00;;;;;22.04;40.24;101921.53;5070939;27;47270;-70
2023/02/19 01:27:49;;;;;;;;;1.00;1.00;;;;;21.99;40.27;101909.31;5072335;28;51539;-70
2023/02/19 01:30:15;;;;;;;;;0.75;0.50;;;;;22.04;40.54;101921.53;5081748;27;45515;-70
2023/02/19 01:32:40;;;;;;;;;1.00;1.00;;;;;21.98;40.51;101915.59;5060690;27;61074;-70
2023/02/19 01:35:06;;;;;;;;;0.00;0.00;;;;;21.99;40.72;101911.09;5066661;28;46657;-71
2023/02/19 01:37:31;;;;;;;;;1.75;1.00;;;;;21.97;40.66;101911.22;5064129;27;45327;-70
2023/02/19 01:39:56;;;;;;;;;0.50;0.00;;;;;22.03;40.64;101930.44;5074264;27;45673;-70
2023/02/19 01:42:22;;;;;;;;;1.00;1.00;;;;;22.02;40.55;101929.59;5072791;28;61953;-70
2023/02/19 01:44:47;;;;;;;;;0.25;0.25;;;;;22.01;40.62;101930.56;5065414;28;45419;-69
2023/02/19 01:47:14;;;;;;;;;0.00;0.00;;;;;21.96;40.16;101919.28;5063386;27;45283;-70
2023/02/19 01:50:00;;;;;;;;;1.00;1.00;;;;;22.01;40.49;101930.56;5066207;28;45533;-70
2023/02/19 01:52:30;;;;;;;;;0.50;0.50;;;;;21.99;40.72;101924.44;5070967;27;46476;-70
2023/02/19 01:54:56;;;;;;;;;2.00;0.00;;;;;22.02;40.10;101923.41;5073113;27;46590;-70
2023/02/19 01:57:27;;;;;;;;;1.00;1.00;;;;;22.02;40.35;101931.41;5062472;28;45680;-70
2023/02/19 01:59:57;;;;;;;;;1.00;1.00;;;;;22.00;40.53;101928.84;5067784;28;45598;-70
2023/02/19 02:02:27;;;;;;;;;1.50;1.50;;;;;22.01;40.29;101938.56;5072850;27;45231;-70
2023/02/19 02:04:53;;;;;;;;;2.00;1.00;;;;;21.98;40.71;101928.06;5071799;27;45593;-70
2023/02/19 02:10:19;;;;;;;;;2.00;1.00;;;;;21.99;40.48;101927.97;5074035;28;45489;-69
2023/02/19 02:12:44;;;;;;;;;1.25;1.00;;;;;21.99;40.46;101919.09;5053593;28;45637;-70
2023/02/19 02:15:10;;;;;;;;;0.00;0.00;;;;;22.00;40.72;101926.16;5056423;27;48469;-70
2023/02/19 02:17:56;;;;;;;;;1.50;1.00;;;;;21.97;40.18;101924.53;5078548;28;45447;-70
2023/02/19 02:20:31;;;;;;;;;1.00;1.00;;;;;21.99;40.65;101929.75;5070662;28;45347;-70
2023/02/19 02:23:09;;;;;;;;;0.25;0.00;;;;;21.99;40.08;101933.31;5065368;28;45488;-70
2023/02/19 02:25:48;;;;;;;;;1.00;1.00;;;;;21.96;40.16;101928.16;5077052;27;46609;-70
2023/02/19 02:28:34;;;;;;;;;1.00;1.00;;;;;21.98;40.33;101920.06;5074913;27;46322;-70
2023/02/19 02:31:09;;;;;;;;;0.00;0.00;;;;;21.95;40.40;101912.22;5068506;28;45773;-70
2023/02/19 02:33:49;;;;;;;;;1.00;1.00;;;;;21.97;40.15;101919.22;5088611;27;45319;-70
2023/02/19 02:36:18;;;;;;;;;1.00;1.00;;;;;21.97;40.74;101929.88;5056264;28;47133;-70
2023/02/19 02:38:45;;;;;;;;;1.25;1.25;;;;;21.94;40.30;101921.19;5055907;28;45328;-69
2023/02/19 02:41:12;;;;;;;;;0.00;0.00;;;;;21.96;40.66;101927.28;5072217;27;45330;-70
2023/02/19 02:43:38;;;;;;;;;0.00;0.00;;;;;21.96;40.22;101937.97;5067521;27;45803;-69
2023/02/19 02:46:03;;;;;;;;;0.50;0.00;;;;;21.94;40.65;101932.72;5066749;27;46205;-70
2023/02/19 02:48:32;;;;;;;;;0.00;0.00;;;;;21.92;40.37;101923.94;5062686;28;45503;-70
2023/02/19 02:51:07;;;;;;;;;0.00;0.00;;;;;21.94;40.06;101929.19;5065705;27;45435;-70
2023/02/19 02:56:23;;;;;;;;;0.00;0.00;;;;;21.91;40.60;101918.69;5074435;27;45416;-70
2023/02/19 02:58:50;;;;;;;;;4.00;0.00;;;;;21.90;39.93;101923.16;5072822;27;63768;-70
2023/02/19 03:05:50;;;;;;;;;1.00;1.00;;;;;21.92;39.92;101923.06;5075270;27;45601;-70
2023/02/19 03:07:35;;;;;;;;;0.00;0.00;;;;;21.90;40.15;101927.63;5076024;27;45919;-70
2023/02/19 03:10:02;;;;;;;;;0.50;0.50;;;;;21.90;40.60;101936.50;5068563;27;45450;-70
2023/02/19 03:20:50;;;;;;;;;0.00;0.00;;;;;21.90;40.10;101936.50;5071163;27;45399;-70
2023/02/19 03:23:17;;;;;;;;;1.25;0.00;;;;;21.87;40.01;101919.78;5062997;28;45360;-70
2023/02/19 03:31:17;;;;;;;;;0.00;0.00;;;;;21.87;40.14;101920.66;5072287;27;47038;-69
2023/02/19 03:33:45;;;;;;;;;0.25;0.00;;;;;21.87;40.07;101919.78;5050169;28;45592;-70
2023/02/19 03:36:14;;;;;;;;;0.00;0.00;;;;;21.87;40.35;101927.78;5072149;28;45427;-70
2023/02/19 03:38:59;;;;;;;;;0.75;0.00;;;;;21.87;40.03;101926.00;5066454;27;45476;-70
2023/02/19 03:41:34;;;;;;;;;0.00;0.00;;;;;21.87;39.99;101930.44;5073916;28;45836;-70
2023/02/19 03:44:10;;;;;;;;;0.00;0.00;;;;;21.87;40.47;101927.78;5066917;27;45220;-69
2023/02/19 03:46:51;;;;;;;;;0.00;0.00;;;;;21.84;40.01;101926.16;5067085;27;45738;-70
2023/02/19 03:49:41;;;;;;;;;0.00;0.00;;;;;21.81;40.15;101915.66;5072378;27;46276;-70
2023/02/19 03:52:15;;;;;;;;;0.00;0.00;;;;;21.81;40.11;101918.34;5070720;28;45782;-69
2023/02/19 03:54:51;;;;;;;;;0.00;0.00;;;;;21.82;40.13;101927.22;5058769;28;45216;-70
2023/02/19 03:57:22;;;;;;;;;0.00;0.00;;;;;21.85;39.95;101929.69;5074923;27;45453;-70
2023/02/19 04:00:22;;;;;;;;;0.00;0.00;;;;;21.84;40.39;101942.16;5063983;27;45450;-69
2023/02/19 04:02:59;;;;;;;;;0.00;0.00;;;;;21.84;39.93;101941.31;5040368;28;45419;-69
2023/02/19 04:05:28;;;;;;;;;0.00;0.00;;;;;21.81;39.82;101934.31;5068925;27;45498;-69
2023/02/19 04:07:57;;;;;;;;;0.00;0.00;;;;;21.83;40.12;101943.09;5075275;28;45686;-70
2023/02/19 04:10:23;;;;;;;;;0.00;0.00;;;;;21.83;40.37;101944.91;5070288;27;46423;-70
2023/02/19 04:12:52;;;;;;;;;0.00;0.00;;;;;21.81;40.03;101944.97;5068405;28;63050;-70
2023/02/19 04:15:21;;;;;;;;;0.00;0.00;;;;;21.82;40.33;101945.88;5071460;27;45438;-70
2023/02/19 04:17:56;;;;;;;;;0.00;0.00;;;;;21.81;40.25;101936.97;5060543;28;45961;-70
2023/02/19 04:20:24;;;;;;;;;3.00;0.00;;;;;21.80;40.23;101944.13;5072620;28;45443;-70
2023/02/19 04:22:50;;;;;;;;;0.00;0.00;;;;;21.82;39.92;101953.84;5058568;28;45403;-70
2023/02/19 04:25:15;;;;;;;;;0.00;0.00;;;;;21.82;40.34;101949.38;5058990;27;49670;-70
2023/02/19 04:27:43;;;;;;;;;0.00;0.00;;;;;21.78;40.12;101955.84;5052721;28;46307;-70
2023/02/19 04:30:14;;;;;;;;;0.00;0.00;;;;;21.80;40.47;101960.13;5055936;28;47091;-70
2023/02/19 04:32:40;;;;;;;;;0.00;0.00;;;;;21.78;39.81;101954.03;5056547;28;45627;-69
2023/02/19 04:35:05;;;;;;;;;0.00;0.00;;;;;21.77;39.91;101960.28;5068474;28;47017;-69
2023/02/19 04:37:31;;;;;;;;;0.00;0.00;;;;;21.76;40.04;101955.91;5066500;27;45328;-69
2023/02/19 04:39:56;;;;;;;;;0.00;0.00;;;;;21.76;40.01;101966.56;5072038;28;69229;-69
2023/02/19 04:42:21;;;;;;;;;0.00;0.00;;;;;21.78;39.88;101971.81;5069469;27;68611;-69
2023/02/19 04:44:47;;;;;;;;;0.00;0.00;;;;;21.78;40.15;101963.81;5058812;28;45637;-70
2023/02/19 04:47:12;;;;;;;;;0.00;0.00;;;;;21.77;40.28;101962.94;5070840;27;45329;-70
2023/02/19 04:49:37;;;;;;;;;0.00;0.00;;;;;21.76;40.10;101963.91;5058476;28;55671;-70
2023/02/19 04:52:03;;;;;;;;;0.00;0.00;;;;;21.79;40.21;101973.53;5068750;28;58875;-70
2023/02/19 04:54:28;;;;;;;;;0.00;0.00;;;;;21.77;40.28;101965.59;5072705;27;45328;-69
2023/02/19 04:56:53;;;;;;;;;0.00;0.00;;;;;21.79;40.39;101965.53;5071325;28;67002;-69
2023/02/19 04:59:19;;;;;;;;;1.00;0.00;;;;;21.77;40.32;101972.75;5071920;27;60981;-69
2023/02/19 05:01:44;;;;;;;;;0.50;0.00;;;;;21.77;40.25;101989.59;5065902;28;61709;-70
2023/02/19 05:04:10;;;;;;;;;0.00;0.00;;;;;21.79;40.29;101998.34;5073268;27;50910;-69
2023/02/19 05:06:35;;;;;;;;;0.00;0.00;;;;;21.78;39.91;101993.13;5072644;28;60038;-69
2023/02/19 05:09:00;;;;;;;;;1.00;0.00;;;;;21.79;39.84;101990.38;5051370;28;48191;-69
2023/02/19 05:11:26;;;;;;;;;0.00;0.00;;;;;21.78;39.75;101993.13;5077848;27;45346;-70
2023/02/19 05:13:51;;;;;;;;;0.00;0.00;;;;;21.75;39.84;101988.81;5063998;27;45499;-69
2023/02/19 05:16:17;;;;;;;;;0.00;0.00;;;;;21.77;40.17;101989.59;5061005;27;45538;-70
2023/02/19 05:18:44;;;;;;;;;0.00;0.00;;;;;21.77;40.20;102002.06;5075008;27;46133;-70
2023/02/19 05:21:10;;;;;;;;;0.00;0.00;;;;;21.80;40.15;102008.09;5077279;27;45625;-69
2023/02/19 05:23:36;;;;;;;;;0.00;0.00;;;;;21.77;39.86;102002.06;5065002;28;45463;-69
2023/02/19 05:26:05;;;;;;;;;0.00;0.00;;;;;21.78;40.07;102001.13;5063311;28;45474;-69
2023/02/19 05:28:31;;;;;;;;;0.00;0.00;;;;;21.79;39.82;102010.81;5081598;27;47071;-69
2023/02/19 05:30:56;;;;;;;;;0.00;0.00;;;;;21.78;40.05;102017.97;5050888;28;57473;-70
2023/02/19 05:33:24;;;;;;;;;0.00;0.00;;;;;21.76;40.16;102010.97;5076183;27;45277;-69
2023/02/19 05:35:52;;;;;;;;;0.00;0.00;;;;;21.78;40.08;102023.31;5077810;27;45493;-69
2023/02/19 05:38:18;;;;;;;;;0.00;0.00;;;;;21.79;39.83;102032.16;5068223;27;46216;-69
2023/02/19 05:40:44;;;;;;;;;0.00;0.00;;;;;21.77;39.65;102029.56;5053876;27;46251;-70
2023/02/19 05:43:10;;;;;;;;;0.00;0.00;;;;;21.78;39.59;102030.44;5059359;28;45387;-70
2023/02/19 05:45:36;;;;;;;;;0.00;0.00;;;;;21.77;39.93;102029.56;5075424;27;45362;-69
2023/02/19 05:48:02;;;;;;;;;0.00;0.00;;;;;21.76;39.99;102027.84;5066392;27;45547;-69
2023/02/19 05:50:28;;;;;;;;;1.00;0.00;;;;;21.77;39.94;102028.72;5064713;28;45253;-69
2023/02/19 05:52:53;;;;;;;;;0.00;0.00;;;;;21.74;39.93;102029.75;5071642;27;45538;-69
2023/02/19 05:55:19;;;;;;;;;0.00;0.00;;;;;21.77;39.58;102039.38;5079702;27;45442;-69
2023/02/19 05:57:47;;;;;;;;;0.00;0.00;;;;;21.77;39.89;102036.69;5081224;27;45416;-69
2023/02/19 06:00:17;;;;;;;;;0.00;0.00;;;;;21.75;39.69;102038.59;5067323;27;45729;-69
2023/02/19 06:02:43;;;;;;;;;1.00;0.00;;;;;21.75;39.52;102038.59;5059772;27;45415;-70
2023/02/19 06:05:09;;;;;;;;;0.00;0.00;;;;;21.70;39.57;102030.84;5077467;28;45548;-70
2023/02/19 06:07:34;;;;;;;;;0.00;0.00;;;;;21.73;39.99;102035.16;5075931;27;45571;-69
2023/02/19 06:10:00;;;;;;;;;0.50;0.00;;;;;21.73;39.71;102045.81;5062269;27;45400;-69
2023/02/19 06:12:25;;;;;;;;;0.50;0.00;;;;;21.69;39.63;102037.13;5075228;27;45475;-69
2023/02/19 06:14:51;;;;;;;;;1.00;0.00;;;;;21.71;39.31;102040.56;5076046;27;45550;-69
2023/02/19 06:17:16;;;;;;;;;0.00;0.00;;;;;21.71;39.50;102035.22;5065235;27;50043;-69
2023/02/19 06:19:42;;;;;;;;;0.00;0.00;;;;;21.70;39.79;102036.16;5068357;27;45439;-69
2023/02/19 06:22:08;;;;;;;;;0.00;0.00;;;;;21.68;39.48;102022.06;5075934;27;55757;-69
2023/02/19 06:24:34;;;;;;;;;0.00;0.00;;;;;21.69;39.44;102039.78;5063134;27;45497;-69
2023/02/19 06:27:00;;;;;;;;;0.00;0.00;;;;;21.70;39.81;102044.16;5068517;27;47853;-69
2023/02/19 06:29:25;;;;;;;;;0.00;0.00;;;;;21.69;39.84;102036.25;5071692;27;45192;-69
2023/02/19 06:31:50;;;;;;;;;0.00;0.00;;;;;21.68;39.90;102047.84;5064471;27;45624;-69
2023/02/19 06:34:16;;;;;;;;;0.00;0.00;;;;;21.69;39.83;102047.78;5064839;27;45548;-69
2023/02/19 06:36:41;;;;;;;;;0.00;0.00;;;;;21.67;39.45;102041.66;5078265;27;45603;-69
2023/02/19 06:39:08;;;;;;;;;0.00;0.00;;;;;21.67;39.83;102051.44;5077859;27;45383;-69
2023/02/19 06:41:33;;;;;;;;;1.00;0.00;;;;;21.65;40.05;102051.53;5070649;27;45811;-69
2023/02/19 06:43:58;;;;;;;;;0.00;0.00;;;;;21.67;40.04;102060.28;5078798;27;45665;-69
2023/02/19 06:46:24;;;;;;;;;0.75;0.00;;;;;21.65;39.50;102058.66;5076108;27;56066;-69
2023/02/19 06:48:50;;;;;;;;;0.75;0.00;;;;;21.64;39.35;102060.47;5069298;28;63734;-69
2023/02/19 06:51:25;;;;;;;;;0.00;0.00;;;;;21.61;39.32;102053.50;5079626;27;45409;-69
2023/02/19 06:53:51;;;;;;;;;0.00;0.00;;;;;21.64;40.01;102056.94;5056586;28;45604;-69
2023/02/19 06:56:25;;;;;;;;;0.00;0.00;;;;;21.66;39.53;102060.41;5078914;27;45441;-69
2023/02/19 06:58:51;;;;;;;;;3.00;0.00;;;;;21.65;39.79;102062.19;5055246;27;45799;-69
2023/02/19 07:01:17;;;;;;;;;0.00;0.00;;;;;21.63;39.32;102072.06;5062262;27;45445;-69
2023/02/19 07:03:42;;;;;;;;;0.00;0.00;;;;;21.60;39.61;102082.88;5059873;28;64645;-70
2023/02/19 07:06:07;;;;;;;;;0.00;0.00;;;;;21.63;39.80;102092.53;5060421;28;68722;-69
2023/02/19 07:08:33;;;;;;;;;0.25;0.00;;;;;21.63;39.64;102096.03;5077578;28;45540;-69
2023/02/19 07:10:58;;;;;;;;;0.00;0.00;;;;;21.62;39.91;102094.34;5069413;27;52489;-69
2023/02/19 07:13:25;;;;;;;;;0.00;0.00;;;;;21.64;39.44;102099.56;5076019;27;68576;-70
2023/02/19 07:15:51;;;;;;;;;0.00;0.00;;;;;21.61;39.77;102090.78;5061796;28;47717;-69
2023/02/19 07:18:16;;;;;;;;;0.00;0.00;;;;;21.63;39.38;102103.19;5049341;28;46146;-69
2023/02/19 07:20:42;;;;;;;;;0.00;0.00;;;;;21.61;39.37;102095.25;5079103;27;45430;-70
2023/02/19 07:23:07;;;;;;;;;0.75;0.00;;;;;21.63;39.87;102113.84;5075389;27;60315;-70
2023/02/19 07:25:32;;;;;;;;;0.00;0.00;;;;;21.59;39.77;102108.66;5071151;28;45426;-70
2023/02/19 07:27:58;;;;;;;;;1.50;0.00;;;;;21.61;39.54;102108.59;5055877;28;45697;-69
2023/02/19 07:30:23;;;;;;;;;0.00;0.00;;;;;21.59;39.67;102108.66;5070203;27;51925;-69
2023/02/19 07:32:49;;;;;;;;;0.00;0.00;;;;;21.60;39.34;102110.41;5064966;28;45466;-69
2023/02/19 07:35:14;;;;;;;;;0.00;0.00;;;;;21.61;39.42;102130.75;5065633;27;66965;-69
2023/02/19 07:37:40;;;;;;;;;0.00;0.00;;;;;21.60;39.69;102123.72;5072696;27;45370;-70
2023/02/19 07:40:06;;;;;;;;;0.00;0.00;;;;;21.57;39.34;102123.88;5097712;27;61263;-69
2023/02/19 07:42:31;;;;;;;;;0.00;0.00;;;;;21.59;39.24;102134.44;5067795;27;45545;-69
2023/02/19 07:44:56;;;;;;;;;0.00;0.00;;;;;21.59;39.31;102131.78;5080577;28;45371;-69
2023/02/19 07:47:22;;;;;;;;;0.00;0.00;;;;;21.58;39.64;102133.59;5070185;27;49365;-69
2023/02/19 07:49:47;;;;;;;;;0.00;0.00;;;;;21.58;39.26;102136.25;5077274;28;45248;-69
2023/02/19 07:52:13;;;;;;;;;0.00;0.00;;;;;21.55;39.11;102124.91;5069223;27;56784;-69
2023/02/19 07:54:38;;;;;;;;;0.00;0.00;;;;;21.58;39.16;102136.25;5072348;27;51352;-69
2023/02/19 07:57:03;;;;;;;;;0.00;0.00;;;;;21.58;39.42;102135.38;5063606;27;46136;-69
2023/02/19 07:59:29;;;;;;;;;0.00;0.00;;;;;21.58;39.28;102138.94;5068866;27;60733;-69
2023/02/19 08:04:38;;;;;;;;;0.25;0.00;;;;;21.58;39.44;102154.91;5069116;27;45369;-70
2023/02/19 08:07:04;;;;;;;;;0.00;0.00;;;;;21.56;39.72;102145.25;5070050;27;57264;-70
2023/02/19 08:09:29;;;;;;;;;3.00;0.00;;;;;21.58;39.44;102148.69;5077373;27;45236;-70
2023/02/19 08:14:39;;;;;;;;;0.00;0.00;;;;;21.61;39.08;102156.53;5068232;27;45490;-70
2023/02/19 08:17:04;;;;;;;;;0.75;0.75;;;;;21.61;39.42;102153.88;5068142;27;63531;-70
2023/02/19 08:19:30;;;;;;;;;1.50;0.00;;;;;21.66;39.19;102158.97;5070833;27;52620;-69
2023/02/19 08:21:55;;;;;;;;;0.00;0.00;;;;;21.66;39.11;102145.66;5076975;27;45277;-70
2023/02/19 08:24:20;;;;;;;;;1.00;0.00;;;;;21.70;39.01;102152.53;5074715;27;47946;-69
2023/02/19 08:26:46;;;;;;;;;0.00;0.00;;;;;21.71;38.92;102157.81;5061886;28;47029;-70
2023/02/19 08:29:12;;;;;;;;;1.50;0.00;;;;;21.77;39.00;102161.94;5070447;27;45407;-69
2023/02/19 08:31:38;;;;;;;;;0.00;0.00;;;;;21.78;39.14;102158.34;5052819;27;56733;-70
2023/02/19 08:34:03;;;;;;;;;0.00;0.00;;;;;21.83;39.21;102171.41;5090306;27;58379;-69
2023/02/19 08:36:28;;;;;;;;;1.00;0.00;;;;;21.83;38.98;102160.75;5076734;27;62151;-70
2023/02/19 08:38:54;;;;;;;;;0.00;0.00;;;;;21.87;38.92;102162.31;5067714;28;45372;-70
2023/02/19 08:41:19;;;;;;;;;0.00;0.00;;;;;21.89;38.69;102163.13;5075746;28;46075;-69
2023/02/19 08:43:45;;;;;;;;;0.00;0.00;;;;;21.92;39.29;102161.16;5062258;27;45697;-69
2023/02/19 08:46:11;;;;;;;;;0.00;0.00;;;;;21.96;39.03;102165.38;5062507;27;66265;-69
2023/02/19 08:48:36;;;;;;;;;0.50;0.00;;;;;21.98;38.91;102163.50;5069481;27;45405;-69
2023/02/19 08:51:07;;;;;;;;;0.00;0.00;;;;;22.00;39.36;102158.94;5061187;27;45490;-68
2023/02/19 08:53:33;;;;;;;;;0.00;0.00;;;;;22.05;39.23;102172.03;5075542;27;46179;-70
2023/02/19 08:56:04;;;;;;;;;4.00;1.00;;;;;22.08;38.72;102169.22;5068226;27;45702;-71
2023/02/19 08:58:31;;;;;;;;;0.00;0.00;;;;;22.09;38.26;102170.91;5074628;27;45561;-70
2023/02/19 09:00:59;;;;;;;;;3.00;0.50;;;;;22.09;37.57;102173.59;5069972;27;45642;-71
2023/02/19 09:03:24;;;;;;;;;1.00;1.00;;;;;22.08;37.64;102174.53;5064783;27;45391;-70
2023/02/19 09:05:50;;;;;;;;;2.50;1.25;;;;;22.06;37.57;102172.88;5065071;27;55591;-71
2023/02/19 09:08:15;;;;;;;;;1.00;1.00;;;;;22.08;37.63;102176.31;5055595;28;45393;-71
2023/02/19 09:10:41;;;;;;;;;1.00;1.00;;;;;22.05;36.93;102171.19;5079090;27;45901;-71
2023/02/19 09:13:06;;;;;;;;;1.00;1.00;;;;;22.01;37.08;102175.81;5071673;27;46028;-71
2023/02/19 09:15:32;;;;;;;;;1.25;1.00;;;;;21.99;36.57;102169.69;5063730;28;45288;-70
2023/02/19 09:17:58;;;;;;;;;1.00;1.00;;;;;22.02;36.68;102188.19;5071452;28;54524;-70
2023/02/19 09:20:23;;;;;;;;;3.25;1.75;;;;;21.96;36.82;102186.69;5057980;28;46301;-70
2023/02/19 09:22:49;;;;;;;;;2.00;0.50;;;;;21.99;36.69;102188.34;5067865;27;45316;-70
2023/02/19 09:25:14;;;;;;;;;3.00;1.00;;;;;21.97;36.26;102191.09;5076676;28;45422;-71
2023/02/19 09:27:40;;;;;;;;;3.00;1.00;;;;;21.96;36.47;102186.69;5071440;27;45719;-71
2023/02/19 09:30:06;;;;;;;;;2.00;0.00;;;;;21.94;35.97;102185.06;5068276;27;45235;-69
2023/02/19 09:32:31;;;;;;;;;1.00;0.25;;;;;21.94;36.43;102188.59;5065999;27;45650;-69
2023/02/19 09:35:05;;;;;;;;;2.25;1.00;;;;;21.91;36.29;102190.56;5075510;27;45789;-70
2023/02/19 09:37:30;;;;;;;;;1.50;0.00;;;;;21.90;35.76;102184.38;5061248;28;45493;-69
2023/02/19 09:39:55;;;;;;;;;1.25;0.00;;;;;21.87;35.99;102183.63;5075489;28;45363;-69
2023/02/19 09:42:23;;;;;;;;;1.00;0.00;;;;;21.87;35.70;102184.53;5060959;27;47076;-69
2023/02/19 09:44:51;;;;;;;;;2.25;0.00;;;;;21.90;35.79;102199.47;5078695;27;45485;-69
2023/02/19 09:47:22;;;;;;;;;1.00;1.00;;;;;21.85;35.87;102191.75;5067982;27;45296;-70
2023/02/19 09:49:51;;;;;;;;;1.25;0.75;;;;;21.89;35.60;102190.63;5074005;27;45457;-69
2023/02/19 09:52:21;;;;;;;;;0.75;0.75;;;;;21.89;35.68;102197.78;5069876;27;46258;-69
2023/02/19 09:54:47;;;;;;;;;2.00;0.75;;;;;21.85;35.42;102193.53;5071452;27;45664;-73
2023/02/19 09:57:17;;;;;;;;;2.75;1.00;;;;;21.88;36.08;102188.88;5051751;28;48074;-70
2023/02/19 09:59:50;;;;;;;;;0.75;0.75;;;;;21.91;36.07;102194.06;5070260;27;46964;-70
2023/02/19 10:02:18;;;;;;;;;0.00;0.00;;;;;21.95;35.69;102202.78;5071880;28;45700;-68
2023/02/19 10:04:45;;;;;;;;;0.50;0.00;;;;;21.96;35.67;102193.84;5072553;27;45363;-68
2023/02/19 10:07:19;;;;;;;;;2.50;1.00;;;;;22.02;35.93;102203.31;5069981;27;45352;-70
2023/02/19 10:09:50;;;;;;;;;1.00;1.00;;;;;22.03;35.90;102189.91;5078171;27;45540;-69
2023/02/19 10:12:23;;;;;;;;;0.00;0.00;;;;;22.10;36.02;102206.47;5071741;27;45550;-70
2023/02/19 10:14:51;;;;;;;;;1.75;1.00;;;;;22.10;36.68;102204.66;5065234;28;45457;-69
2023/02/19 10:17:26;;;;;;;;;2.50;1.00;;;;;22.14;36.57;102205.34;5065656;27;45422;-70
2023/02/19 10:19:52;;;;;;;;;2.25;1.00;;;;;22.14;37.09;102208.88;5059271;28;45878;-67
2023/02/19 10:22:18;;;;;;;;;2.75;1.00;;;;;22.18;37.93;102210.41;5071130;27;46192;-74
2023/02/19 10:24:45;;;;;;;;;2.25;1.00;;;;;22.27;37.81;102216.25;5053986;28;45861;-73
2023/02/19 10:27:14;;;;;;;;;5.75;1.50;;;;;22.31;38.30;102218.69;5074023;27;45323;-70
2023/02/19 10:29:41;;;;;;;;;8.00;4.00;;;;;22.35;38.02;102222.91;5061888;28;45550;-70
2023/02/19 10:32:30;;;;;;;;;11.00;6.75;;;;;22.40;38.63;102222.69;5051846;28;46352;-71
2023/02/19 10:35:15;;;;;;;;;6.00;4.50;;;;;22.40;38.78;102211.13;5060297;28;58847;-72
2023/02/19 10:37:49;;;;;;;;;7.25;5.25;;;;;22.33;38.60;102202.63;5081199;27;45331;-71
2023/02/19 10:40:19;;;;;;;;;10.00;7.00;;;;;22.48;38.61;102232.94;5074624;27;45569;-68
2023/02/19 10:42:47;;;;;;;;;10.50;6.00;;;;;22.48;38.97;102230.25;5049031;28;45483;-73
2023/02/19 10:45:19;;;;;;;;;7.75;5.00;;;;;22.56;39.07;102244.91;5078225;27;45458;-76
2023/02/19 10:47:50;;;;;;;;;14.00;7.00;;;;;22.52;38.80;102237.16;5072166;27;47324;-77
2023/02/19 10:50:26;;;;;;;;;6.75;6.00;;;;;22.61;39.65;102247.34;5058155;28;46510;-75
2023/02/19 10:52:54;;;;;;;;;7.75;5.25;;;;;22.72;39.37;102262.78;5048720;28;47130;-73
2023/02/19 10:55:55;;;;;;;;;7.00;6.00;;;;;22.74;39.56;102266.22;5068773;28;45699;-73
2023/02/19 10:58:27;;;;;;;;;7.75;5.50;;;;;22.74;39.32;102271.56;5057561;28;45395;-73
2023/02/19 11:01:12;;;;;;;;;6.75;4.75;;;;;22.68;39.33;102250.53;5066829;27;45308;-73
2023/02/19 11:03:37;;;;;;;;;7.00;4.50;;;;;22.64;40.02;102257.84;5079921;27;46071;-73
2023/02/19 11:06:05;;;;;;;;;5.75;4.75;;;;;22.80;39.47;102273.88;5076321;27;45519;-73
2023/02/19 11:08:47;;;;;;;;;7.25;6.75;;;;;22.81;39.44;102272.94;5080514;27;45264;-73
2023/02/19 11:11:31;;;;;;;;;4.00;3.00;;;;;22.80;39.23;102273.03;5079789;27;45278;-73
2023/02/19 11:13:58;;;;;;;;;8.50;4.25;;;;;22.77;39.11;102251.84;5064241;27;45436;-73
2023/02/19 11:16:57;;;;;;;;;6.75;4.75;;;;;22.83;39.53;102280.88;5078758;27;45765;-73
2023/02/19 11:19:35;;;;;;;;;4.75;3.00;;;;;22.82;39.09;102268.47;5025157;28;45388;-73
2023/02/19 11:22:01;;;;;;;;;4.50;3.75;;;;;22.80;39.61;102265.88;5076174;27;45378;-73
2023/02/19 11:24:33;;;;;;;;;5.75;3.50;;;;;22.84;39.35;102277.25;5070523;28;47080;-73
2023/02/19 11:27:00;;;;;;;;;3.00;3.00;;;;;22.81;39.23;102280.97;5069676;27;45426;-73
2023/02/19 11:29:27;;;;;;;;;2.25;2.00;;;;;22.79;39.19;102268.63;5079008;28;45355;-73
2023/02/19 11:31:55;;;;;;;;;6.25;4.00;;;;;22.82;39.14;102263.13;5078990;27;45485;-73
2023/02/19 11:34:21;;;;;;;;;3.50;3.00;;;;;22.83;39.16;102275.53;5074442;27;47101;-73
2023/02/19 11:37:13;;;;;;;;;3.00;3.00;;;;;22.80;39.22;102281.03;5067031;27;45932;-73
2023/02/19 11:39:41;;;;;;;;;3.50;3.00;;;;;22.82;39.05;102290.69;5074022;28;45280;-73
2023/02/19 11:42:34;;;;;;;;;1.75;1.75;;;;;22.81;39.14;102290.78;5070760;27;45758;-73
2023/02/19 11:45:20;;;;;;;;;3.75;3.25;;;;;22.79;39.19;102282.84;5067695;27;46496;-73
2023/02/19 11:48:14;;;;;;;;;2.25;2.25;;;;;22.79;39.27;102288.19;5058961;28;45793;-73
2023/02/19 11:50:52;;;;;;;;;2.25;2.25;;;;;22.79;39.06;102295.31;5073499;28;45185;-73
2023/02/19 11:53:31;;;;;;;;;2.25;1.25;;;;;22.62;38.71;102274.88;5081304;27;45347;-74
2023/02/19 11:56:22;;;;;;;;;3.00;3.00;;;;;22.55;38.91;102261.00;5074561;27;45529;-73
2023/02/19 11:58:59;;;;;;;;;4.00;2.00;;;;;22.75;39.10;102278.59;5069809;27;45920;-74